Time;durP1;ratioP1;P1;durP2;ratioP2;P2;SDS_P1;SDS_P2;PMS_P1;PMS_P2;Temp;Humidity;BMP_temperature;BMP_pressure;BME280_temperature;BME280_humidity;BME280_pressure;Samples;Min_cycle;Max_cycle;Signal;HPM_P1;HPM_P2
2022/12/26 00:00:19;;;;;;;;;;;;;;;14.28;84.59;100053.78;5052268;28;19929;-63
2022/12/26 00:02:44;;;;;;;;;;;;;;;14.29;84.72;100057.34;5035802;28;20446;-65
2022/12/26 00:05:09;;;;;;;;;;;;;;;14.29;84.54;100062.69;5034948;28;19952;-64
2022/12/26 00:07:35;;;;;;;;;;;;;;;14.25;85.06;100064.66;5033896;28;19935;-63
2022/12/26 00:10:00;;;;;;;;;;;;;;;14.22;85.84;100059.41;5047335;28;20036;-63
2022/12/26 00:12:25;;;;;;;;;;;;;;;14.24;85.36;100053.97;5048614;28;19955;-62
2022/12/26 00:14:50;;;;;;;;;;;;;;;14.23;84.90;100063.81;5054355;28;19949;-63
2022/12/26 00:17:16;;;;;;;;;;;;;;;14.33;85.37;100075.84;5049862;28;19949;-63
2022/12/26 00:19:42;;;;;;;;;;;;;;;14.38;85.07;100070.31;5054037;28;20033;-63
2022/12/26 00:22:07;;;;;;;;;;;;;;;14.40;83.43;100076.44;5047674;28;20276;-63
2022/12/26 00:24:33;;;;;;;;;;;;;;;14.44;83.53;100072.69;5033708;28;19932;-64
2022/12/26 00:26:58;;;;;;;;;;;;;;;14.46;84.09;100071.66;5032018;28;19935;-63
2022/12/26 00:29:23;;;;;;;;;;;;;;;14.45;83.18;100058.34;5036514;28;20364;-64
2022/12/26 00:31:48;;;;;;;;;;;;;;;14.47;82.96;100070.75;5033916;28;19948;-63
2022/12/26 00:34:14;;;;;;;;;;;;;;;14.45;83.79;100071.72;5034240;28;19933;-63
2022/12/26 00:36:39;;;;;;;;;;;;;;;14.40;83.86;100073.75;5038000;28;19992;-64
2022/12/26 00:39:05;;;;;;;;;;;;;;;14.32;84.33;100070.56;5040267;28;20386;-63
2022/12/26 00:41:30;;;;;;;;;;;;;;;14.34;83.92;100082.09;5053411;28;20433;-64
2022/12/26 00:43:55;;;;;;;;;;;;;;;14.34;84.74;100071.38;5053412;28;20023;-63
2022/12/26 00:46:20;;;;;;;;;;;;;;;14.36;84.98;100058.81;5040178;28;19935;-63
2022/12/26 00:48:46;;;;;;;;;;;;;;;14.33;85.13;100057.13;5033413;28;19973;-64
2022/12/26 00:51:11;;;;;;;;;;;;;;;14.30;84.47;100049.25;5035858;28;20040;-64
2022/12/26 00:53:37;;;;;;;;;;;;;;;14.29;85.15;100054.69;5033725;28;19974;-63
2022/12/26 00:56:02;;;;;;;;;;;;;;;14.31;84.61;100047.44;5033288;28;19938;-63
2022/12/26 00:58:28;;;;;;;;;;;;;;;14.34;84.69;100052.66;5033638;28;19929;-64
2022/12/26 01:00:53;;;;;;;;;;;;;;;14.36;83.98;100040.91;5039446;28;19943;-63
2022/12/26 01:03:19;;;;;;;;;;;;;;;14.36;84.07;100040.06;5041546;28;19999;-63
2022/12/26 01:05:46;;;;;;;;;;;;;;;14.47;82.09;100043.97;5039686;28;19963;-63
2022/12/26 01:08:11;;;;;;;;;;;;;;;14.57;81.53;100031.00;5033071;28;20019;-64
2022/12/26 01:10:39;;;;;;;;;;;;;;;14.56;81.94;100042.66;5035723;28;20069;-64
2022/12/26 01:13:04;;;;;;;;;;;;;;;14.52;82.40;100049.09;5035239;28;19966;-63
2022/12/26 01:15:29;;;;;;;;;;;;;;;14.55;82.21;100056.97;5033220;28;20306;-64
2022/12/26 01:17:56;;;;;;;;;;;;;;;14.54;83.50;100060.59;5044087;28;19972;-65
2022/12/26 01:20:22;;;;;;;;;;;;;;;14.56;83.47;100073.91;5052480;28;19936;-64
2022/12/26 01:22:47;;;;;;;;;;;;;;;14.54;83.54;100071.31;5050173;28;19995;-63
2022/12/26 01:25:12;;;;;;;;;;;;;;;14.61;83.15;100080.78;5052789;28;19939;-64
2022/12/26 01:27:37;;;;;;;;;;;;;;;14.60;82.98;100079.03;5049917;28;19934;-63
2022/12/26 01:30:03;;;;;;;;;;;;;;;14.60;83.06;100071.00;5052632;28;19953;-64
2022/12/26 01:32:29;;;;;;;;;;;;;;;14.56;81.97;100069.44;5052390;28;19960;-63
2022/12/26 01:34:55;;;;;;;;;;;;;;;14.59;82.52;100063.94;5050580;28;19978;-64
2022/12/26 01:37:22;;;;;;;;;;;;;;;14.67;82.22;100085.84;5036007;28;19949;-64
2022/12/26 01:39:47;;;;;;;;;;;;;;;14.64;82.29;100077.09;5039999;28;20327;-63
2022/12/26 01:42:17;;;;;;;;;;;;;;;14.66;82.87;100076.09;5034892;28;19942;-63
2022/12/26 01:45:00;;;;;;;;;;;;;;;14.68;81.30;100074.19;5048162;28;20409;-64
2022/12/26 01:47:36;;;;;;;;;;;;;;;14.79;81.50;100092.41;5052241;28;19994;-63
2022/12/26 01:50:03;;;;;;;;;;;;;;;14.85;80.32;100090.31;5049359;28;20324;-63
2022/12/26 01:52:41;;;;;;;;;;;;;;;14.85;81.23;100087.63;5052409;28;19953;-64
2022/12/26 01:55:10;;;;;;;;;;;;;;;14.82;81.16;100087.78;5052087;28;19936;-64
2022/12/26 01:57:38;;;;;;;;;;;;;;;14.85;80.25;100089.44;5047640;28;19967;-63
2022/12/26 02:00:38;;;;;;;;;;;;;;;14.88;80.88;100108.91;5032520;28;20380;-64
2022/12/26 02:05:49;;;;;;;;;;;;;;;14.85;80.43;100103.69;5052336;28;20049;-64
2022/12/26 02:08:17;;;;;;;;;;;;;;;14.86;80.57;100105.41;5038415;28;19981;-64
2022/12/26 02:10:47;;;;;;;;;;;;;;;14.84;80.74;100104.66;5031429;28;19927;-63
2022/12/26 02:13:12;;;;;;;;;;;;;;;14.83;80.36;100105.56;5030777;28;19952;-64
2022/12/26 02:15:38;;;;;;;;;;;;;;;14.83;80.99;100107.38;5033013;28;19938;-64
2022/12/26 02:18:03;;;;;;;;;;;;;;;14.84;81.00;100101.97;5031022;28;19958;-63
2022/12/26 02:20:35;;;;;;;;;;;;;;;14.84;81.04;100099.31;5038560;28;20399;-64
2022/12/26 02:23:00;;;;;;;;;;;;;;;14.88;80.62;100100.88;5050505;28;20365;-64
2022/12/26 02:25:25;;;;;;;;;;;;;;;14.86;81.83;100115.28;5048661;28;19942;-64
2022/12/26 02:28:09;;;;;;;;;;;;;;;14.86;81.04;100109.94;5051126;28;19976;-64
2022/12/26 02:30:37;;;;;;;;;;;;;;;14.83;79.87;100115.41;5051820;28;20005;-64
2022/12/26 02:33:13;;;;;;;;;;;;;;;14.90;81.15;100111.50;5051092;28;19951;-64
2022/12/26 02:35:41;;;;;;;;;;;;;;;14.86;80.20;100110.78;5043154;28;19995;-64
2022/12/26 02:38:06;;;;;;;;;;;;;;;14.87;80.09;100108.97;5031741;28;20359;-64
2022/12/26 02:40:31;;;;;;;;;;;;;;;14.89;80.68;100105.25;5047871;28;19937;-63
2022/12/26 02:43:14;;;;;;;;;;;;;;;14.94;79.65;100102.38;5032405;28;19936;-64
2022/12/26 02:48:36;;;;;;;;;;;;;;;14.97;80.42;100092.41;5033849;28;20077;-64
2022/12/26 03:14:15;;;;;;;;;;;;;;;14.92;80.28;100089.06;5030150;28;19987;-64
2022/12/26 03:19:25;;;;;;;;;;;;;;;14.87;80.76;100084.88;5039959;28;20076;-65
2022/12/26 03:21:51;;;;;;;;;;;;;;;14.84;81.58;100085.03;5051233;28;19930;-64
2022/12/26 03:24:17;;;;;;;;;;;;;;;14.86;81.22;100088.50;5044316;28;20355;-64
2022/12/26 03:26:47;;;;;;;;;;;;;;;14.85;81.13;100084.94;5043594;28;19933;-65
2022/12/26 03:31:59;;;;;;;;;;;;;;;14.91;80.74;100071.25;5033428;28;20129;-64
2022/12/26 03:34:25;;;;;;;;;;;;;;;14.92;80.65;100072.13;5033760;28;19969;-63
2022/12/26 03:36:53;;;;;;;;;;;;;;;14.92;79.72;100067.66;5031186;28;20035;-63
2022/12/26 03:39:18;;;;;;;;;;;;;;;14.93;79.70;100069.38;5039339;28;19939;-64
2022/12/26 04:19:24;;;;;;;;;;;;;;;15.37;74.84;100059.13;5034259;28;19947;-64
2022/12/26 04:44:17;;;;;;;;;;;;;;;15.35;77.30;100082.44;5033904;28;19977;-64
2022/12/26 04:46:45;;;;;;;;;;;;;;;15.29;80.06;100082.72;5035455;28;20390;-64
2022/12/26 04:51:56;;;;;;;;;;;;;;;15.07;82.07;100095.47;5033745;28;20099;-64
2022/12/26 04:54:21;;;;;;;;;;;;;;;14.99;84.94;100089.63;5035975;28;20433;-63
2022/12/26 04:56:46;;;;;;;;;;;;;;;14.91;85.09;100098.03;5033691;28;20031;-64
2022/12/26 04:59:12;;;;;;;;;;;;;;;14.84;86.98;100096.63;5033669;28;19937;-64
2022/12/26 05:09:54;;;;;;;;;;;;;;;14.58;89.59;100099.66;5046849;28;20470;-64
2022/12/26 05:12:19;;;;;;;;;;;;;;;14.55;88.92;100098.97;5046696;28;19987;-63
2022/12/26 05:14:45;;;;;;;;;;;;;;;14.55;89.73;100096.28;5053129;28;20716;-65
2022/12/26 05:30:54;;;;;;;;;;;;;;;14.43;89.91;100098.56;5041202;28;19937;-64
2022/12/26 05:36:03;;;;;;;;;;;;;;;14.46;88.40;100086.88;5038063;28;19934;-64
2022/12/26 05:38:28;;;;;;;;;;;;;;;14.45;88.05;100093.16;5046494;28;20404;-64
2022/12/26 05:40:53;;;;;;;;;;;;;;;14.47;87.99;100096.63;5051501;28;19939;-64
2022/12/26 05:43:18;;;;;;;;;;;;;;;14.47;87.39;100088.59;5050125;28;20792;-64
2022/12/26 05:45:44;;;;;;;;;;;;;;;14.51;87.57;100084.84;5034030;28;19940;-64
2022/12/26 05:48:09;;;;;;;;;;;;;;;14.46;87.52;100095.75;5032276;28;19996;-65
2022/12/26 05:50:34;;;;;;;;;;;;;;;14.46;87.33;100095.75;5032669;28;19931;-64
2022/12/26 05:53:00;;;;;;;;;;;;;;;14.44;88.64;100088.75;5033715;28;20007;-64
2022/12/26 05:55:25;;;;;;;;;;;;;;;14.41;87.60;100088.91;5052108;28;20463;-64
2022/12/26 05:57:51;;;;;;;;;;;;;;;14.42;86.91;100078.13;5052177;28;19924;-64
2022/12/26 06:00:16;;;;;;;;;;;;;;;14.46;87.12;100084.19;5050967;28;19938;-64
2022/12/26 06:02:42;;;;;;;;;;;;;;;14.51;86.13;100077.66;5034081;28;19938;-64
2022/12/26 06:05:07;;;;;;;;;;;;;;;14.53;85.65;100066.88;5051185;28;19948;-64
2022/12/26 06:07:32;;;;;;;;;;;;;;;14.56;85.12;100080.16;5042543;28;19933;-64
2022/12/26 06:09:58;;;;;;;;;;;;;;;14.61;85.13;100085.28;5046091;28;19933;-64
2022/12/26 06:12:23;;;;;;;;;;;;;;;14.62;85.76;100082.50;5052012;28;19956;-63
2022/12/26 06:14:48;;;;;;;;;;;;;;;14.64;84.83;100083.31;5051462;28;19929;-64
2022/12/26 06:17:14;;;;;;;;;;;;;;;14.63;85.01;100078.03;5046374;28;19934;-65
2022/12/26 06:19:39;;;;;;;;;;;;;;;14.60;84.47;100081.72;5050810;28;19939;-65
2022/12/26 06:22:04;;;;;;;;;;;;;;;14.63;85.22;100086.06;5050964;28;19940;-65
2022/12/26 06:24:29;;;;;;;;;;;;;;;14.61;86.35;100083.47;5046507;28;20067;-65
2022/12/26 06:26:55;;;;;;;;;;;;;;;14.58;86.83;100091.63;5049258;28;19938;-65
2022/12/26 06:29:20;;;;;;;;;;;;;;;14.55;88.03;100097.13;5049512;28;20360;-64
2022/12/26 06:31:45;;;;;;;;;;;;;;;14.57;88.78;100099.72;5049199;28;19956;-65
2022/12/26 06:34:11;;;;;;;;;;;;;;;14.51;91.24;100082.16;5049755;28;19939;-65
2022/12/26 06:36:36;;;;;;;;;;;;;;;14.44;92.28;100091.41;5051762;28;19934;-64
2022/12/26 06:39:02;;;;;;;;;;;;;;;14.33;93.62;100104.44;5047366;28;20385;-64
2022/12/26 06:41:27;;;;;;;;;;;;;;;14.26;93.96;100105.66;5051728;28;19937;-64
2022/12/26 06:43:52;;;;;;;;;;;;;;;14.20;96.10;100111.28;5050397;28;19960;-63
2022/12/26 06:46:20;;;;;;;;;;;;;;;14.11;96.80;100101.84;5033993;28;19983;-64
2022/12/26 06:48:45;;;;;;;;;;;;;;;14.01;97.17;100113.91;5031538;28;20040;-63
2022/12/26 06:51:12;;;;;;;;;;;;;;;14.02;97.05;100117.44;5031301;28;20009;-64
2022/12/26 06:53:37;;;;;;;;;;;;;;;13.98;97.65;100118.50;5033300;28;19996;-63
2022/12/26 06:56:06;;;;;;;;;;;;;;;13.99;95.55;100120.25;5051451;28;19958;-64
2022/12/26 06:58:32;;;;;;;;;;;;;;;14.03;95.99;100127.19;5048579;28;19938;-65
2022/12/26 07:01:07;;;;;;;;;;;;;;;14.04;94.84;100113.75;5032492;28;20301;-65
2022/12/26 07:03:33;;;;;;;;;;;;;;;14.09;94.88;100116.22;5038214;28;20402;-65
2022/12/26 07:06:05;;;;;;;;;;;;;;;14.13;94.98;100112.47;5047186;28;19976;-64
2022/12/26 07:08:30;;;;;;;;;;;;;;;14.13;94.82;100107.13;5047998;28;19981;-64
2022/12/26 07:10:56;;;;;;;;;;;;;;;14.10;95.60;100101.91;5050598;28;20324;-65
2022/12/26 07:13:21;;;;;;;;;;;;;;;14.06;95.71;100105.66;5049947;28;19954;-65
2022/12/26 07:15:46;;;;;;;;;;;;;;;14.00;95.67;100100.59;5033586;28;19936;-64
2022/12/26 07:18:12;;;;;;;;;;;;;;;14.03;95.20;100111.16;5031580;28;20377;-64
2022/12/26 07:20:37;;;;;;;;;;;;;;;14.05;95.22;100126.19;5031303;28;19941;-64
2022/12/26 07:23:02;;;;;;;;;;;;;;;14.07;95.24;100118.09;5037309;28;19938;-64
2022/12/26 07:25:27;;;;;;;;;;;;;;;14.09;95.17;100121.56;5030745;28;20402;-64
2022/12/26 07:27:53;;;;;;;;;;;;;;;14.18;95.08;100115.81;5035527;28;19932;-64
2022/12/26 07:30:18;;;;;;;;;;;;;;;14.21;94.71;100118.34;5050402;28;19974;-65
2022/12/26 07:32:43;;;;;;;;;;;;;;;14.02;95.93;100125.47;5035257;28;19959;-63
2022/12/26 07:35:08;;;;;;;;;;;;;;;13.96;96.56;100120.38;5031329;28;19980;-65
2022/12/26 07:37:34;;;;;;;;;;;;;;;13.98;96.09;100118.50;5034243;28;19935;-64
2022/12/26 07:39:59;;;;;;;;;;;;;;;14.07;96.22;100118.97;5049302;28;19939;-64
2022/12/26 07:42:24;;;;;;;;;;;;;;;14.00;95.14;100133.53;5043198;28;20458;-65
2022/12/26 07:44:50;;;;;;;;;;;;;;;13.96;95.24;100131.97;5034465;28;19934;-64
2022/12/26 07:47:15;;;;;;;;;;;;;;;13.99;95.49;100138.97;5037028;28;19937;-64
2022/12/26 07:49:40;;;;;;;;;;;;;;;13.95;96.80;100140.03;5034430;28;19963;-63
2022/12/26 07:52:05;;;;;;;;;;;;;;;13.87;97.58;100144.88;5034716;28;19954;-64
2022/12/26 07:54:31;;;;;;;;;;;;;;;13.85;98.97;100149.41;5034806;28;19930;-63
2022/12/26 07:56:56;;;;;;;;;;;;;;;13.85;98.84;100165.44;5036744;28;20418;-63
2022/12/26 07:59:21;;;;;;;;;;;;;;;13.84;99.84;100174.38;5034394;28;19932;-64
2022/12/26 08:01:47;;;;;;;;;;;;;;;13.77;100.00;100188.97;5036402;28;19936;-63
2022/12/26 08:04:12;;;;;;;;;;;;;;;13.75;100.00;100189.03;5046532;28;19956;-63
2022/12/26 08:06:38;;;;;;;;;;;;;;;13.74;100.00;100197.13;5051584;28;19939;-64
2022/12/26 08:09:03;;;;;;;;;;;;;;;13.73;100.00;100208.75;5041071;28;20061;-64
2022/12/26 08:11:31;;;;;;;;;;;;;;;13.70;100.00;100211.56;5054373;28;20020;-64
2022/12/26 08:13:56;;;;;;;;;;;;;;;13.67;100.00;100230.41;5042844;28;20051;-65
2022/12/26 08:16:22;;;;;;;;;;;;;;;13.60;100.00;100234.25;5054036;28;20054;-64
2022/12/26 08:18:47;;;;;;;;;;;;;;;13.56;100.00;100238.00;5050106;28;19938;-64
2022/12/26 08:21:12;;;;;;;;;;;;;;;13.47;100.00;100241.03;5034101;28;19989;-63
2022/12/26 08:23:38;;;;;;;;;;;;;;;13.47;100.00;100238.34;5034807;28;20293;-63
2022/12/26 08:26:07;;;;;;;;;;;;;;;13.51;100.00;100248.00;5035837;28;19942;-64
2022/12/26 08:28:33;;;;;;;;;;;;;;;13.52;100.00;100249.72;5042437;28;20457;-64
2022/12/26 08:30:59;;;;;;;;;;;;;;;13.49;100.00;100247.19;5049628;28;20022;-65
2022/12/26 08:33:24;;;;;;;;;;;;;;;13.47;100.00;100257.06;5053813;28;20335;-64
2022/12/26 08:35:49;;;;;;;;;;;;;;;13.45;100.00;100266.94;5053477;28;19941;-64
2022/12/26 08:38:15;;;;;;;;;;;;;;;13.48;100.00;100272.16;5053582;28;20345;-65
2022/12/26 08:40:40;;;;;;;;;;;;;;;13.46;100.00;100280.25;5045173;28;19951;-63
2022/12/26 08:43:06;;;;;;;;;;;;;;;13.50;100.00;100297.03;5033282;28;20462;-63
2022/12/26 08:45:31;;;;;;;;;;;;;;;13.48;100.00;100299.75;5034914;28;19927;-63
2022/12/26 08:47:57;;;;;;;;;;;;;;;13.48;100.00;100296.22;5033837;28;19935;-64
2022/12/26 08:50:22;;;;;;;;;;;;;;;13.47;100.00;100286.47;5033491;28;20005;-63
2022/12/26 08:52:47;;;;;;;;;;;;;;;13.46;100.00;100296.28;5035425;28;20036;-63
2022/12/26 08:55:12;;;;;;;;;;;;;;;13.49;100.00;100301.53;5032959;28;19985;-63
2022/12/26 08:57:38;;;;;;;;;;;;;;;13.49;100.00;100314.00;5035343;28;19944;-64
2022/12/26 09:00:03;;;;;;;;;;;;;;;13.50;100.00;100318.41;5035772;28;19948;-63
2022/12/26 09:02:29;;;;;;;;;;;;;;;13.51;100.00;100302.31;5035565;28;19944;-63
2022/12/26 09:04:54;;;;;;;;;;;;;;;13.46;100.00;100311.47;5050670;28;19986;-63
2022/12/26 09:07:19;;;;;;;;;;;;;;;13.49;100.00;100316.66;5045496;28;19939;-63
2022/12/26 09:09:46;;;;;;;;;;;;;;;13.50;100.00;100323.75;5045243;28;19935;-64
2022/12/26 09:12:11;;;;;;;;;;;;;;;13.47;100.00;100331.88;5051264;28;19957;-64
2022/12/26 09:14:36;;;;;;;;;;;;;;;13.49;100.00;100328.25;5050050;28;20296;-63
2022/12/26 09:17:02;;;;;;;;;;;;;;;13.46;100.00;100327.50;5052984;28;19976;-63
2022/12/26 09:19:31;;;;;;;;;;;;;;;13.46;100.00;100335.50;5046413;28;19936;-63
2022/12/26 09:24:40;;;;;;;;;;;;;;;13.36;100.00;100348.31;5050170;28;19962;-63
2022/12/26 09:27:06;;;;;;;;;;;;;;;13.32;100.00;100345.84;5035335;28;20359;-62
2022/12/26 09:29:31;;;;;;;;;;;;;;;13.21;100.00;100332.91;5048323;28;19929;-62
2022/12/26 09:31:56;;;;;;;;;;;;;;;13.21;100.00;100324.91;5039316;28;19963;-63
2022/12/26 09:34:21;;;;;;;;;;;;;;;13.16;100.00;100319.72;5050948;28;20020;-63
2022/12/26 09:36:47;;;;;;;;;;;;;;;13.13;100.00;100319.84;5048958;28;19937;-63
2022/12/26 09:39:12;;;;;;;;;;;;;;;13.11;100.00;100332.38;5040089;28;20349;-63
2022/12/26 09:41:37;;;;;;;;;;;;;;;13.10;100.00;100327.97;5052581;28;19933;-63
2022/12/26 09:44:05;;;;;;;;;;;;;;;13.13;100.00;100335.84;5038352;28;20443;-63
2022/12/26 09:46:34;;;;;;;;;;;;;;;13.13;100.00;100333.19;5032497;28;19935;-63
2022/12/26 09:49:10;;;;;;;;;;;;;;;13.20;100.00;100353.41;5034113;28;20046;-64
2022/12/26 09:51:40;;;;;;;;;;;;;;;13.23;100.00;100331.91;5031285;28;20390;-64
2022/12/26 09:54:10;;;;;;;;;;;;;;;13.21;100.00;100368.50;5032096;28;20040;-63
2022/12/26 09:56:38;;;;;;;;;;;;;;;13.30;100.00;100379.75;5034639;28;19940;-63
2022/12/26 09:59:12;;;;;;;;;;;;;;;13.32;100.00;100377.91;5031167;28;19936;-64
2022/12/26 10:01:38;;;;;;;;;;;;;;;13.33;100.00;100382.34;5040731;28;19934;-64
2022/12/26 10:04:07;;;;;;;;;;;;;;;13.31;100.00;100400.22;5050827;28;20002;-64
2022/12/26 10:06:37;;;;;;;;;;;;;;;13.30;100.00;100395.78;5049574;28;19932;-64
2022/12/26 10:09:14;;;;;;;;;;;;;;;13.23;100.00;100388.00;5051615;28;19945;-63
2022/12/26 10:11:48;;;;;;;;;;;;;;;13.12;100.00;100390.22;5051898;28;20326;-64
2022/12/26 10:14:25;;;;;;;;;;;;;;;13.20;100.00;100387.25;5036999;28;19940;-63
2022/12/26 10:17:09;;;;;;;;;;;;;;;13.12;100.00;100375.97;5033184;28;20023;-63
2022/12/26 10:19:49;;;;;;;;;;;;;;;13.12;100.00;100359.97;5040104;28;19928;-62
2022/12/26 10:22:33;;;;;;;;;;;;;;;12.99;100.00;100367.53;5050644;28;19924;-65
2022/12/26 10:25:00;;;;;;;;;;;;;;;12.95;100.00;100368.56;5045600;28;19984;-64
2022/12/26 10:27:26;;;;;;;;;;;;;;;12.91;100.00;100374.94;5030203;28;19934;-63
2022/12/26 10:30:00;;;;;;;;;;;;;;;12.86;100.00;100374.25;5030804;28;19931;-63
2022/12/26 10:32:32;;;;;;;;;;;;;;;12.88;100.00;100355.50;5048874;28;19947;-64
2022/12/26 10:34:58;;;;;;;;;;;;;;;12.88;100.00;100360.84;5051453;28;19944;-64
2022/12/26 10:37:29;;;;;;;;;;;;;;;12.85;100.00;100361.81;5047849;28;19930;-62
2022/12/26 10:39:55;;;;;;;;;;;;;;;12.89;100.00;100365.25;5051647;28;19945;-61
2022/12/26 10:42:23;;;;;;;;;;;;;;;12.90;100.00;100365.19;5051419;28;20410;-62
2022/12/26 10:44:48;;;;;;;;;;;;;;;12.81;100.00;100378.88;5051103;28;19941;-62
2022/12/26 10:47:18;;;;;;;;;;;;;;;12.86;100.00;100384.91;5046739;28;19935;-62
2022/12/26 10:49:44;;;;;;;;;;;;;;;12.89;100.00;100384.81;5050527;28;19957;-62
2022/12/26 10:52:11;;;;;;;;;;;;;;;12.86;100.00;100376.91;5050081;28;20042;-62
2022/12/26 10:54:36;;;;;;;;;;;;;;;12.91;100.00;100372.28;5048385;28;20015;-64
2022/12/26 10:57:01;;;;;;;;;;;;;;;12.79;100.00;100335.34;5039729;28;20090;-63
2022/12/26 10:59:41;;;;;;;;;;;;;;;12.91;100.00;100382.97;5030945;28;19943;-62
2022/12/26 11:02:14;;;;;;;;;;;;;;;12.97;100.00;100385.41;5033057;28;19941;-64
2022/12/26 11:04:55;;;;;;;;;;;;;;;13.01;100.00;100395.06;5046560;28;20026;-62
2022/12/26 11:07:20;;;;;;;;;;;;;;;12.99;100.00;100375.53;5048957;28;19929;-63
2022/12/26 11:09:50;;;;;;;;;;;;;;;13.03;100.00;100382.53;5046293;28;19939;-63
2022/12/26 11:12:19;;;;;;;;;;;;;;;12.99;100.00;100385.34;5045420;28;19951;-63
2022/12/26 11:14:45;;;;;;;;;;;;;;;13.00;100.00;100376.38;5035426;28;19934;-63
2022/12/26 11:17:30;;;;;;;;;;;;;;;12.98;100.00;100373.78;5037381;28;19938;-63
2022/12/26 11:20:13;;;;;;;;;;;;;;;12.99;100.00;100375.53;5046130;28;19933;-63
2022/12/26 11:22:39;;;;;;;;;;;;;;;12.95;100.00;100376.56;5051240;28;19938;-64
2022/12/26 11:25:23;;;;;;;;;;;;;;;12.96;100.00;100375.63;5050088;28;19942;-64
2022/12/26 11:27:51;;;;;;;;;;;;;;;13.04;100.00;100368.25;5035120;28;19968;-64
2022/12/26 11:30:18;;;;;;;;;;;;;;;13.06;100.00;100363.72;5035106;28;20391;-63
2022/12/26 11:32:49;;;;;;;;;;;;;;;13.09;100.00;100373.44;5045165;28;20012;-63
2022/12/26 11:35:20;;;;;;;;;;;;;;;13.14;100.00;100384.81;5054853;28;19931;-64
2022/12/26 11:37:47;;;;;;;;;;;;;;;13.14;100.00;100380.34;5050988;28;19927;-64
2022/12/26 11:40:20;;;;;;;;;;;;;;;13.14;100.00;100380.34;5053965;28;20415;-63
2022/12/26 11:42:56;;;;;;;;;;;;;;;13.17;100.00;100380.22;5054867;28;19934;-63
2022/12/26 11:45:23;;;;;;;;;;;;;;;13.13;100.00;100367.91;5038019;28;19935;-63
2022/12/26 11:47:49;;;;;;;;;;;;;;;13.14;100.00;100368.78;5034698;28;20384;-64
2022/12/26 11:50:20;;;;;;;;;;;;;;;13.13;100.00;100367.03;5034597;28;19987;-64
2022/12/26 11:52:46;;;;;;;;;;;;;;;13.11;100.00;100348.38;5035228;28;20007;-64
2022/12/26 11:55:31;;;;;;;;;;;;;;;13.13;100.00;100351.88;5038089;28;20410;-65
2022/12/26 11:58:00;;;;;;;;;;;;;;;13.23;100.00;100360.41;5036474;28;19948;-64
2022/12/26 12:00:26;;;;;;;;;;;;;;;13.33;100.00;100359.13;5034754;28;20483;-64
2022/12/26 12:02:51;;;;;;;;;;;;;;;13.32;100.00;100351.19;5049405;28;19972;-65
2022/12/26 12:05:35;;;;;;;;;;;;;;;13.27;100.00;100353.16;5045754;28;19953;-64
2022/12/26 12:08:24;;;;;;;;;;;;;;;13.30;100.00;100342.34;5034442;28;20301;-64
2022/12/26 12:10:52;;;;;;;;;;;;;;;13.30;100.00;100353.03;5036409;28;19931;-64
2022/12/26 12:13:29;;;;;;;;;;;;;;;13.26;100.00;100349.63;5036413;28;19964;-64
2022/12/26 12:16:15;;;;;;;;;;;;;;;13.26;100.00;100354.09;5033509;28;19958;-64
2022/12/26 12:18:49;;;;;;;;;;;;;;;13.27;100.00;100354.03;5039554;28;20034;-64
2022/12/26 12:21:26;;;;;;;;;;;;;;;13.27;100.00;100346.03;5034063;28;19934;-64
2022/12/26 12:23:51;;;;;;;;;;;;;;;13.29;100.00;100351.31;5034433;28;20447;-64
2022/12/26 12:26:22;;;;;;;;;;;;;;;13.30;100.00;100345.03;5037292;28;19932;-64
2022/12/26 12:28:57;;;;;;;;;;;;;;;13.32;100.00;100349.41;5036267;28;19943;-65
2022/12/26 12:31:40;;;;;;;;;;;;;;;13.35;100.00;100348.38;5036129;28;19985;-64
2022/12/26 12:34:24;;;;;;;;;;;;;;;13.40;100.00;100349.09;5033599;28;19943;-64
2022/12/26 12:37:04;;;;;;;;;;;;;;;13.39;100.00;100347.34;5036059;28;19940;-64
2022/12/26 12:39:30;;;;;;;;;;;;;;;13.40;100.00;100349.09;5043580;28;19940;-64
2022/12/26 12:42:11;;;;;;;;;;;;;;;13.42;100.00;100347.22;5049213;28;19937;-63
2022/12/26 12:44:42;;;;;;;;;;;;;;;13.44;100.00;100348.03;5033583;28;20115;-64
2022/12/26 12:47:15;;;;;;;;;;;;;;;13.43;100.00;100344.50;5033286;28;19936;-64
2022/12/26 12:49:52;;;;;;;;;;;;;;;13.46;100.00;100346.19;5035756;28;20051;-63
2022/12/26 12:52:35;;;;;;;;;;;;;;;13.48;100.00;100330.94;5033300;28;19948;-63
2022/12/26 12:55:03;;;;;;;;;;;;;;;13.60;100.00;100333.13;5035491;28;20063;-64
2022/12/26 12:57:34;;;;;;;;;;;;;;;13.59;100.00;100318.91;5033591;28;19975;-64
2022/12/26 13:00:28;;;;;;;;;;;;;;;13.62;100.00;100312.56;5035747;28;19940;-64
2022/12/26 13:03:11;;;;;;;;;;;;;;;13.62;100.00;100309.91;5033617;28;19987;-65
2022/12/26 13:05:53;;;;;;;;;;;;;;;13.60;100.00;100327.78;5039091;28;19960;-64
2022/12/26 13:08:42;;;;;;;;;;;;;;;13.63;100.00;100331.22;5033789;28;19927;-64
2022/12/26 13:11:20;;;;;;;;;;;;;;;13.69;100.00;100339.00;5041809;28;20344;-65
2022/12/26 13:13:48;;;;;;;;;;;;;;;13.69;100.00;100330.97;5032672;28;19991;-64
2022/12/26 13:16:15;;;;;;;;;;;;;;;13.65;100.00;100342.72;5035312;28;19944;-64
2022/12/26 13:18:48;;;;;;;;;;;;;;;13.64;100.00;100332.09;5035685;28;19979;-64
2022/12/26 13:21:14;;;;;;;;;;;;;;;13.65;100.00;100328.47;5035492;28;19937;-64
2022/12/26 13:26:47;;;;;;;;;;;;;;;13.63;100.00;100319.66;5052209;28;20619;-64
2022/12/26 13:29:18;;;;;;;;;;;;;;;13.66;100.00;100311.50;5039490;28;19935;-65
2022/12/26 13:31:43;;;;;;;;;;;;;;;13.58;100.00;100306.47;5051794;28;19933;-64
2022/12/26 13:34:13;;;;;;;;;;;;;;;13.60;100.00;100315.31;5047965;28;20359;-64
2022/12/26 13:36:48;;;;;;;;;;;;;;;13.58;100.00;100306.47;5051815;28;19979;-64
2022/12/26 13:39:19;;;;;;;;;;;;;;;13.56;100.00;100307.50;5052068;28;20042;-64
2022/12/26 13:44:33;;;;;;;;;;;;;;;13.54;100.00;100295.97;5070509;28;19941;-63
2022/12/26 13:46:59;;;;;;;;;;;;;;;13.46;100.00;100290.06;5052282;28;20400;-64
2022/12/26 13:49:37;;;;;;;;;;;;;;;13.37;100.00;100295.78;5047732;28;20391;-64
2022/12/26 13:52:18;;;;;;;;;;;;;;;13.39;100.00;100301.94;5052320;28;20460;-64
2022/12/26 13:54:46;;;;;;;;;;;;;;;13.38;100.00;100305.53;5049525;28;19931;-64
2022/12/26 13:57:30;;;;;;;;;;;;;;;13.36;100.00;100292.22;5032383;28;19942;-64
2022/12/26 14:00:08;;;;;;;;;;;;;;;13.34;100.00;100295.91;5031971;28;19934;-65
2022/12/26 14:02:42;;;;;;;;;;;;;;;13.42;100.00;100289.31;5049076;28;19947;-64
2022/12/26 14:05:20;;;;;;;;;;;;;;;13.48;100.00;100290.84;5051910;28;19949;-64
2022/12/26 14:07:57;;;;;;;;;;;;;;;13.54;100.00;100301.31;5051896;28;19995;-64
2022/12/26 14:10:31;;;;;;;;;;;;;;;13.54;100.00;100294.16;5035365;28;19939;-64
2022/12/26 14:13:03;;;;;;;;;;;;;;;13.52;100.00;100279.13;5031273;28;20587;-64
2022/12/26 14:15:47;;;;;;;;;;;;;;;13.49;100.00;100295.28;5030974;28;19934;-64
2022/12/26 14:18:24;;;;;;;;;;;;;;;13.48;100.00;100297.09;5047314;28;19932;-64
2022/12/26 14:20:56;;;;;;;;;;;;;;;13.51;100.00;100296.09;5037603;28;20339;-65
2022/12/26 14:23:21;;;;;;;;;;;;;;;13.45;100.00;100286.53;5047258;28;20362;-64
2022/12/26 14:25:50;;;;;;;;;;;;;;;13.49;100.00;100284.59;5034164;28;20031;-64
2022/12/26 14:28:21;;;;;;;;;;;;;;;13.49;100.00;100292.63;5032001;28;19936;-65
2022/12/26 14:30:52;;;;;;;;;;;;;;;13.47;100.00;100276.66;5033477;28;19940;-64
2022/12/26 14:33:25;;;;;;;;;;;;;;;13.48;100.00;100272.16;5041438;28;19963;-65
2022/12/26 14:36:03;;;;;;;;;;;;;;;13.49;100.00;100265.91;5047921;28;20307;-64
2022/12/26 14:38:41;;;;;;;;;;;;;;;13.48;100.00;100270.38;5031649;28;20291;-64
2022/12/26 14:43:09;;;;;;;;;;;;;;;13.39;100.00;100277.88;5031193;28;19929;-64
2022/12/26 14:43:53;;;;;;;;;;;;;;;13.40;100.00;100279.63;5031678;28;19940;-63
2022/12/26 14:46:31;;;;;;;;;;;;;;;13.42;100.00;100278.63;5033660;28;19944;-63
2022/12/26 14:48:58;;;;;;;;;;;;;;;13.41;100.00;100292.06;5050890;28;19962;-63